Norwell, Massachusetts
Current Conditions -  °F | °C
As of 6:15 PM on Monday 22 Dec 2014 (Local Time) from KGHG Reporting Station
Overcast Overcast  
Wind Chill:   Ceiling: 3000
Heat Index:   Visibility: 10mi
Dew Point:   Wind: 6mph
Humidity: 81%   Direction: 120°ESE
Pressure: 30.35"   Gusts: NA
Location:  42.16°N, 70.79°W
Report Text: KGHG 222315Z AUTO 12005KT 10SM OVC030 07/04 A3035 RMK AO2
Loading
Personal Weather Stations






























Interactive Weather Map New forecast layout! Learn more

10-Day Weather Forecast

Advertisements
Track Severe Weather on mobile